createdAt,value
2022-12-23T00:01:45.789Z,10.70
2022-12-23T00:04:12.464Z,10.48
2022-12-23T00:06:38.964Z,9.80
2022-12-23T00:09:05.383Z,10.40
2022-12-23T00:11:31.861Z,9.77
2022-12-23T00:14:21.564Z,11.48
2022-12-23T00:16:50.562Z,11.73
2022-12-23T00:19:17.248Z,9.68
2022-12-23T00:21:43.722Z,9.20
2022-12-23T00:24:11.759Z,10.40
2022-12-23T00:26:38.489Z,7.88
2022-12-23T00:29:04.903Z,8.48
2022-12-23T00:31:31.417Z,8.25
2022-12-23T00:33:57.915Z,7.65
2022-12-23T00:36:29.238Z,7.20
2022-12-23T00:39:15.626Z,8.15
2022-12-23T00:42:00.844Z,5.63
2022-12-23T00:44:27.332Z,6.00
2022-12-23T00:46:53.858Z,5.80
2022-12-23T00:49:39.727Z,6.28
2022-12-23T00:52:08.839Z,5.20
2022-12-23T00:54:35.287Z,4.88
2022-12-23T00:57:01.934Z,4.80
2022-12-23T00:59:28.420Z,5.22
2022-12-23T01:02:13.637Z,4.25
2022-12-23T01:04:59.139Z,4.05
2022-12-23T01:07:25.876Z,3.47
2022-12-23T01:09:52.309Z,3.92
2022-12-23T01:12:18.888Z,3.53
2022-12-23T01:14:45.477Z,3.50
2022-12-23T01:17:12.208Z,3.60
2022-12-23T01:19:38.853Z,3.63
2022-12-23T01:22:05.626Z,3.10
2022-12-23T01:24:32.587Z,2.97
2022-12-23T01:31:52.522Z,2.80
2022-12-23T01:34:19.102Z,2.88
2022-12-23T01:36:45.710Z,3.60
2022-12-23T01:39:12.277Z,3.25
2022-12-23T01:41:57.407Z,3.28
2022-12-23T01:45:02.090Z,3.00
2022-12-23T01:47:45.016Z,2.67
2022-12-23T01:50:19.880Z,2.70
2022-12-23T01:53:07.661Z,2.33
2022-12-23T01:55:46.104Z,2.75
2022-12-23T01:58:18.104Z,2.63
2022-12-23T02:01:03.570Z,2.22
2022-12-23T02:03:42.369Z,2.58
2022-12-23T02:06:55.078Z,2.28
2022-12-23T02:09:30.325Z,2.45
2022-12-23T02:12:11.833Z,2.22
2022-12-23T02:15:18.201Z,2.42
2022-12-23T02:18:05.675Z,2.13
2022-12-23T02:20:59.260Z,2.10
2022-12-23T02:23:50.044Z,2.17
2022-12-23T02:26:31.792Z,2.08
2022-12-23T02:29:03.968Z,2.63
2022-12-23T02:31:52.117Z,2.78
2022-12-23T02:34:25.828Z,2.50
2022-12-23T02:37:03.190Z,2.22
2022-12-23T02:39:45.839Z,2.35
2022-12-23T02:42:31.687Z,2.08
2022-12-23T02:45:17.768Z,2.20
2022-12-23T02:47:52.636Z,2.42
2022-12-23T02:50:41.538Z,2.20
2022-12-23T02:53:15.864Z,2.30
2022-12-23T02:55:46.929Z,2.33
2022-12-23T02:58:16.806Z,2.72
2022-12-23T03:00:44.000Z,2.30
2022-12-23T03:03:10.932Z,2.22
2022-12-23T03:08:17.263Z,2.08
2022-12-23T03:10:55.820Z,2.28
2022-12-23T03:13:55.517Z,2.60
2022-12-23T03:16:42.585Z,2.45
2022-12-23T03:19:26.300Z,2.35
2022-12-23T03:22:00.627Z,2.00
2022-12-23T03:24:44.237Z,3.33
2022-12-23T03:27:20.063Z,3.40
2022-12-23T03:30:09.053Z,2.03
2022-12-23T03:32:43.327Z,2.42
2022-12-23T03:35:12.600Z,1.90
2022-12-23T03:37:44.140Z,1.80
2022-12-23T03:40:22.470Z,2.15
2022-12-23T03:42:54.981Z,1.85
2022-12-23T03:45:38.671Z,1.65
2022-12-23T03:48:13.599Z,1.98
2022-12-23T03:50:43.041Z,1.90
2022-12-23T03:53:16.189Z,1.63
2022-12-23T03:55:51.274Z,2.10
2022-12-23T03:58:30.901Z,2.30
2022-12-23T04:01:18.151Z,1.77
2022-12-23T04:04:20.775Z,1.48
2022-12-23T04:06:55.780Z,1.35
2022-12-23T04:09:25.764Z,1.38
2022-12-23T04:11:52.826Z,1.50
2022-12-23T04:16:48.693Z,1.52
2022-12-23T04:19:15.362Z,1.90
2022-12-23T04:21:41.871Z,1.70
2022-12-23T04:24:08.550Z,2.47
2022-12-23T04:26:35.040Z,1.25
2022-12-23T04:29:01.435Z,1.20
2022-12-23T04:31:27.964Z,1.17
2022-12-23T04:33:54.482Z,1.13
2022-12-23T04:36:20.909Z,1.13
2022-12-23T04:38:47.438Z,0.90
2022-12-23T04:41:13.883Z,1.45
2022-12-23T04:43:40.380Z,0.90
2022-12-23T04:46:06.984Z,0.93
2022-12-23T04:48:33.524Z,0.80
2022-12-23T04:51:02.896Z,0.40
2022-12-23T04:53:29.414Z,0.82
2022-12-23T04:55:55.817Z,0.70
2022-12-23T04:58:24.123Z,1.90
2022-12-23T05:01:01.646Z,1.17
2022-12-23T05:03:28.830Z,0.80
2022-12-23T05:05:55.356Z,0.60
2022-12-23T05:08:21.829Z,0.90
2022-12-23T05:10:48.248Z,0.95
2022-12-23T05:13:14.774Z,1.25
2022-12-23T05:15:44.952Z,1.05
2022-12-23T05:18:12.329Z,0.60
2022-12-23T05:20:38.812Z,0.45
2022-12-23T05:23:05.298Z,1.45
2022-12-23T05:25:36.108Z,1.40
2022-12-23T05:28:03.882Z,1.48
2022-12-23T05:30:30.447Z,1.50
2022-12-23T05:32:57.233Z,1.45
2022-12-23T05:35:26.636Z,0.85
2022-12-23T05:37:53.561Z,1.08
2022-12-23T05:40:24.745Z,0.80
2022-12-23T05:42:53.962Z,0.90
2022-12-23T05:45:20.810Z,1.92
2022-12-23T05:47:47.350Z,1.25
2022-12-23T05:50:14.616Z,1.23
2022-12-23T05:55:08.274Z,0.95
2022-12-23T05:57:34.772Z,1.30
2022-12-23T06:00:01.324Z,2.90
2022-12-23T06:02:27.910Z,1.88
2022-12-23T06:04:54.540Z,1.73
2022-12-23T06:07:21.019Z,0.98
2022-12-23T06:09:47.489Z,1.30
2022-12-23T06:12:14.034Z,0.90
2022-12-23T06:14:40.474Z,0.90
2022-12-23T06:17:07.005Z,0.82
2022-12-23T06:19:33.587Z,0.88
2022-12-23T06:22:00.169Z,1.63
2022-12-23T06:24:26.660Z,1.80
2022-12-23T06:26:57.023Z,0.70
2022-12-23T06:29:24.605Z,1.00
2022-12-23T06:31:51.201Z,1.05
2022-12-23T06:34:18.024Z,0.70
2022-12-23T06:36:44.570Z,0.98
2022-12-23T06:39:11.375Z,0.73
2022-12-23T06:41:37.885Z,1.17
2022-12-23T06:44:04.625Z,0.77
2022-12-23T06:46:31.273Z,0.93
2022-12-23T06:48:57.793Z,0.77
2022-12-23T06:51:24.322Z,1.13
2022-12-23T06:53:50.804Z,0.60
2022-12-23T06:56:18.661Z,0.95
2022-12-23T06:58:45.206Z,0.85
2022-12-23T07:01:12.081Z,0.80
2022-12-23T07:06:05.562Z,0.70
2022-12-23T07:08:32.029Z,0.70
2022-12-23T07:11:03.542Z,1.30
2022-12-23T07:13:31.144Z,1.10
2022-12-23T07:15:57.800Z,0.88
2022-12-23T07:18:25.172Z,2.30
2022-12-23T07:20:52.272Z,2.45
2022-12-23T07:25:45.283Z,1.10
2022-12-23T07:28:11.835Z,1.63
2022-12-23T07:30:38.359Z,3.85
2022-12-23T07:33:04.841Z,4.10
2022-12-23T07:35:31.379Z,1.90
2022-12-23T07:37:58.134Z,1.75
2022-12-23T07:40:25.800Z,1.95
2022-12-23T07:42:59.058Z,1.60
2022-12-23T07:45:27.081Z,3.40
2022-12-23T07:47:58.990Z,1.80
2022-12-23T07:50:26.533Z,1.13
2022-12-23T07:52:54.173Z,0.80
2022-12-23T07:55:21.474Z,0.88
2022-12-23T07:57:49.239Z,0.65
2022-12-23T08:00:16.239Z,1.00
2022-12-23T08:07:36.356Z,1.00
2022-12-23T08:10:05.331Z,1.35
2022-12-23T08:12:32.185Z,1.20
2022-12-23T08:14:58.975Z,1.70
2022-12-23T08:17:29.749Z,1.50
2022-12-23T08:19:57.128Z,1.17
2022-12-23T08:22:24.421Z,1.80
2022-12-23T08:24:52.541Z,1.08
2022-12-23T08:27:19.451Z,0.80
2022-12-23T08:29:45.975Z,1.00
2022-12-23T08:32:12.601Z,1.25
2022-12-23T08:34:39.192Z,1.20
2022-12-23T08:37:05.740Z,1.33
2022-12-23T08:39:32.334Z,1.08
2022-12-23T08:41:58.911Z,1.48
2022-12-23T08:44:27.936Z,1.58
2022-12-23T08:46:55.356Z,1.60
2022-12-23T08:49:22.202Z,2.20
2022-12-23T08:51:49.112Z,1.98
2022-12-23T08:56:43.115Z,1.35
2022-12-23T08:59:19.272Z,1.55
2022-12-23T09:01:47.119Z,1.77
2022-12-23T09:04:13.783Z,2.20
2022-12-23T09:06:42.434Z,2.60
2022-12-23T09:09:11.099Z,1.40
2022-12-23T09:11:38.565Z,1.65
2022-12-23T09:14:05.750Z,2.08
2022-12-23T09:16:32.458Z,1.48
2022-12-23T09:18:59.146Z,1.55
2022-12-23T09:21:25.668Z,1.70
2022-12-23T09:23:52.661Z,1.63
2022-12-23T09:28:47.012Z,1.48
2022-12-23T09:31:14.042Z,1.38
2022-12-23T09:33:40.682Z,1.77
2022-12-23T09:36:07.804Z,1.33
2022-12-23T09:38:34.964Z,1.15
2022-12-23T09:41:22.887Z,1.23
2022-12-23T09:44:27.725Z,1.48
2022-12-23T09:46:58.297Z,1.55
2022-12-23T09:49:24.978Z,1.25
2022-12-23T09:51:55.815Z,1.08
2022-12-23T09:54:31.233Z,1.48
2022-12-23T09:57:03.098Z,1.10
2022-12-23T09:59:44.823Z,0.95
2022-12-23T10:02:11.382Z,1.13
2022-12-23T10:04:54.371Z,1.00
2022-12-23T10:07:39.973Z,1.30
2022-12-23T10:10:16.235Z,1.10
2022-12-23T10:12:48.352Z,1.23
2022-12-23T10:15:48.424Z,2.55
2022-12-23T10:18:22.363Z,1.20
2022-12-23T10:20:57.454Z,3.33
2022-12-23T10:23:32.727Z,1.10
2022-12-23T10:26:01.333Z,1.50
2022-12-23T10:28:29.950Z,1.63
2022-12-23T10:31:38.482Z,1.17
2022-12-23T10:34:22.690Z,0.75
2022-12-23T10:37:17.407Z,1.20
2022-12-23T10:40:03.352Z,3.38
2022-12-23T10:42:36.325Z,1.27
2022-12-23T10:45:28.109Z,0.80
2022-12-23T10:48:25.113Z,0.80
2022-12-23T10:51:05.926Z,1.27
2022-12-23T10:53:39.272Z,1.10
2022-12-23T10:56:07.350Z,1.30
2022-12-23T10:58:40.530Z,1.10
2022-12-23T11:01:15.216Z,0.80
2022-12-23T11:04:03.461Z,0.98
2022-12-23T11:06:37.052Z,0.82
2022-12-23T11:09:06.547Z,0.93
2022-12-23T11:12:02.356Z,2.05
2022-12-23T11:14:38.279Z,1.20
2022-12-23T11:17:17.370Z,1.50
2022-12-23T11:19:44.421Z,1.30
2022-12-23T11:24:48.010Z,2.03
2022-12-23T11:27:19.040Z,1.60
2022-12-23T11:29:50.389Z,1.20
2022-12-23T11:32:22.347Z,1.73
2022-12-23T11:34:50.129Z,4.82
2022-12-23T11:37:40.392Z,4.03
2022-12-23T11:40:24.441Z,3.60
2022-12-23T11:42:55.689Z,2.47
2022-12-23T11:45:25.051Z,1.45
2022-12-23T11:47:52.245Z,2.13
2022-12-23T11:50:35.277Z,1.75
2022-12-23T11:53:25.285Z,1.77
2022-12-23T11:56:11.375Z,2.08
2022-12-23T11:59:06.571Z,3.22
2022-12-23T12:01:33.875Z,2.45
2022-12-23T12:04:03.495Z,1.92
2022-12-23T12:06:32.018Z,2.33
2022-12-23T12:09:01.491Z,2.67
2022-12-23T12:11:53.373Z,1.70
2022-12-23T12:14:40.937Z,1.20
2022-12-23T12:17:25.223Z,1.70
2022-12-23T12:20:10.195Z,1.27
2022-12-23T12:23:15.817Z,2.40
2022-12-23T12:25:47.661Z,2.20
2022-12-23T12:28:38.831Z,1.75
2022-12-23T12:31:28.112Z,1.55
2022-12-23T12:34:24.614Z,1.38
2022-12-23T12:37:08.810Z,2.58
2022-12-23T12:40:04.689Z,2.03
2022-12-23T12:42:40.278Z,2.33
2022-12-23T12:45:27.242Z,2.05
2022-12-23T12:48:18.146Z,3.08
2022-12-23T12:50:58.050Z,1.60
2022-12-23T12:53:24.813Z,1.90
2022-12-23T12:56:00.299Z,1.90
2022-12-23T12:58:26.826Z,1.75
2022-12-23T13:01:11.946Z,1.50
2022-12-23T13:04:07.511Z,1.88
2022-12-23T13:07:18.403Z,1.35
2022-12-23T13:10:16.814Z,12.27
2022-12-23T13:12:57.729Z,3.88
2022-12-23T13:15:34.371Z,1.52
2022-12-23T13:18:20.749Z,1.70
2022-12-23T13:20:54.367Z,2.55
2022-12-23T13:23:46.354Z,2.42
2022-12-23T13:26:23.044Z,1.88
2022-12-23T13:29:03.579Z,1.30
2022-12-23T13:31:45.068Z,1.80
2022-12-23T13:34:29.673Z,1.73
2022-12-23T13:37:23.475Z,1.50
2022-12-23T13:40:08.771Z,1.80
2022-12-23T13:42:40.490Z,1.80
2022-12-23T13:45:14.491Z,2.00
2022-12-23T13:48:08.122Z,2.10
2022-12-23T13:50:47.515Z,2.60
2022-12-23T13:53:41.538Z,2.50
2022-12-23T13:56:16.944Z,1.70
2022-12-23T13:58:48.252Z,3.83
2022-12-23T14:01:14.821Z,3.45
2022-12-23T14:03:41.577Z,2.05
2022-12-23T14:06:40.320Z,1.60
2022-12-23T14:09:06.905Z,2.22
2022-12-23T14:11:34.235Z,2.00
2022-12-23T14:14:03.836Z,1.70
2022-12-23T14:16:48.364Z,2.08
2022-12-23T14:19:33.258Z,2.25
2022-12-23T14:22:24.842Z,1.85
2022-12-23T14:25:19.140Z,1.73
2022-12-23T14:28:07.393Z,2.10
2022-12-23T14:30:37.229Z,2.10
2022-12-23T14:33:24.629Z,2.00
2022-12-23T14:36:21.179Z,2.17
2022-12-23T14:39:13.250Z,2.15
2022-12-23T14:41:49.479Z,1.95
2022-12-23T14:44:43.749Z,1.95
2022-12-23T14:47:32.587Z,1.98
2022-12-23T14:50:33.000Z,2.00
2022-12-23T14:53:01.250Z,2.42
2022-12-23T14:55:30.940Z,2.45
2022-12-23T14:58:11.406Z,4.07
2022-12-23T15:00:49.964Z,5.15
2022-12-23T15:03:19.322Z,5.07
2022-12-23T15:05:46.393Z,5.10
2022-12-23T15:10:59.171Z,6.47
2022-12-23T15:13:28.653Z,6.40
2022-12-23T15:16:01.399Z,5.55
2022-12-23T15:18:28.982Z,5.65
2022-12-23T15:21:10.769Z,5.63
2022-12-23T15:23:37.186Z,4.72
2022-12-23T15:26:03.805Z,5.05
2022-12-23T15:28:38.617Z,4.07
2022-12-23T15:31:06.395Z,6.20
2022-12-23T15:36:30.789Z,23.80
2022-12-23T15:38:59.663Z,39.03
2022-12-23T15:41:26.371Z,30.08
2022-12-23T15:43:57.442Z,19.55
2022-12-23T15:46:29.844Z,19.55
2022-12-23T15:48:57.574Z,17.88
2022-12-23T15:54:21.275Z,12.27
2022-12-23T15:56:50.525Z,6.95
2022-12-23T15:59:25.156Z,7.25
2022-12-23T16:01:52.164Z,9.88
2022-12-23T16:04:25.399Z,12.05
2022-12-23T16:06:53.067Z,11.10
2022-12-23T16:09:19.407Z,11.15
2022-12-23T16:11:59.241Z,10.93
2022-12-23T16:14:31.315Z,11.75
2022-12-23T16:17:09.985Z,11.20
2022-12-23T16:19:44.422Z,12.00
2022-12-23T16:22:30.737Z,10.80
2022-12-23T16:25:14.943Z,9.65
2022-12-23T16:27:48.735Z,11.00
2022-12-23T16:30:22.275Z,13.52
2022-12-23T16:32:50.859Z,13.13
2022-12-23T16:35:36.483Z,13.02
2022-12-23T16:38:18.460Z,12.57
2022-12-23T16:40:50.567Z,12.77
2022-12-23T16:43:18.116Z,10.38
2022-12-23T16:45:46.158Z,10.02
2022-12-23T16:48:30.946Z,7.55
2022-12-23T16:50:57.950Z,7.22
2022-12-23T16:55:55.378Z,5.97
2022-12-23T16:58:24.902Z,5.60
2022-12-23T17:00:52.409Z,4.85
2022-12-23T17:03:20.613Z,4.53
2022-12-23T17:05:48.132Z,4.85
2022-12-23T17:08:15.176Z,4.20
2022-12-23T17:10:42.553Z,4.40
2022-12-23T17:16:03.371Z,3.53
2022-12-23T17:18:29.903Z,3.40
2022-12-23T17:20:56.349Z,3.03
2022-12-23T17:23:32.451Z,3.38
2022-12-23T17:25:58.876Z,3.60
2022-12-23T17:28:31.949Z,4.35
2022-12-23T17:30:58.896Z,4.85
2022-12-23T17:35:55.773Z,4.20
2022-12-23T17:38:22.695Z,3.67
2022-12-23T17:40:50.145Z,3.70
2022-12-23T17:43:18.258Z,3.53
2022-12-23T17:45:45.602Z,3.40
2022-12-23T17:48:20.595Z,3.28
2022-12-23T17:50:48.909Z,3.03
2022-12-23T17:53:17.960Z,2.75
2022-12-23T17:55:44.717Z,2.80
2022-12-23T17:58:11.919Z,2.72
2022-12-23T18:00:38.852Z,2.65
2022-12-23T18:03:06.386Z,2.80
2022-12-23T18:05:34.842Z,2.47
2022-12-23T18:08:02.836Z,2.42
2022-12-23T18:10:33.752Z,2.97
2022-12-23T18:13:04.695Z,3.83
2022-12-23T18:15:39.430Z,7.55
2022-12-23T18:18:24.428Z,8.60
2022-12-23T18:20:56.319Z,15.77
2022-12-23T18:23:26.551Z,21.73
2022-12-23T18:25:53.617Z,33.30
2022-12-23T18:30:46.640Z,24.20
2022-12-23T18:33:13.545Z,21.02
2022-12-23T18:35:45.716Z,21.27
2022-12-23T18:38:12.666Z,13.55
2022-12-23T18:43:06.605Z,12.77
2022-12-23T18:45:35.559Z,10.25
2022-12-23T18:48:04.706Z,9.20
2022-12-23T18:50:32.481Z,10.85
2022-12-23T18:52:59.286Z,11.40
2022-12-23T18:55:26.359Z,12.93
2022-12-23T18:57:53.138Z,12.95
2022-12-23T19:00:23.229Z,11.07
2022-12-23T19:02:51.630Z,10.13
2022-12-23T19:05:29.842Z,10.00
2022-12-23T19:07:57.981Z,10.88
2022-12-23T19:10:30.215Z,7.53
2022-12-23T19:12:56.890Z,8.13
2022-12-23T19:15:23.586Z,7.80
2022-12-23T19:17:50.424Z,7.55
2022-12-23T19:20:17.918Z,7.38
2022-12-23T19:22:45.148Z,7.25
2022-12-23T19:25:15.092Z,6.32
2022-12-23T19:27:42.771Z,4.85
2022-12-23T19:30:13.869Z,4.25
2022-12-23T19:32:40.722Z,3.90
2022-12-23T19:35:07.558Z,3.60
2022-12-23T19:37:34.729Z,4.05
2022-12-23T19:40:01.222Z,3.83
2022-12-23T19:42:27.769Z,3.53
2022-12-23T19:44:54.235Z,3.90
2022-12-23T19:47:20.715Z,3.28
2022-12-23T19:49:47.455Z,3.42
2022-12-23T19:52:13.974Z,3.30
2022-12-23T19:54:40.444Z,3.17
2022-12-23T19:57:07.038Z,3.13
2022-12-23T19:59:33.535Z,3.30
2022-12-23T20:02:00.157Z,3.53
2022-12-23T20:04:26.827Z,3.03
2022-12-23T20:06:53.357Z,3.10
2022-12-23T20:09:19.892Z,3.38
2022-12-23T20:11:48.735Z,3.78
2022-12-23T20:14:17.856Z,3.50
2022-12-23T20:16:44.876Z,3.65
2022-12-23T20:21:37.986Z,3.25
2022-12-23T20:24:05.807Z,3.40
2022-12-23T20:26:32.553Z,3.45
2022-12-23T20:28:59.394Z,4.35
2022-12-23T20:31:31.572Z,4.80
2022-12-23T20:33:58.714Z,5.88
2022-12-23T20:38:53.589Z,10.80
2022-12-23T20:41:23.062Z,9.65
2022-12-23T20:44:15.709Z,8.73
2022-12-23T20:46:36.540Z,7.93
2022-12-23T20:49:03.132Z,8.05
2022-12-23T20:51:29.652Z,8.23
2022-12-23T20:54:01.108Z,8.63
2022-12-23T20:56:29.396Z,10.95
2022-12-23T20:58:57.624Z,11.20
2022-12-23T21:01:35.768Z,11.63
2022-12-23T21:04:05.649Z,10.10
2022-12-23T21:06:33.505Z,9.65
2022-12-23T21:09:00.861Z,10.50
2022-12-23T21:11:29.611Z,8.18
2022-12-23T21:13:59.915Z,12.93
2022-12-23T21:16:32.260Z,12.43
2022-12-23T21:18:59.436Z,17.67
2022-12-23T21:21:28.296Z,18.60
2022-12-23T21:23:56.314Z,19.52
2022-12-23T21:26:26.122Z,16.65
2022-12-23T21:28:54.940Z,7.90
2022-12-23T21:31:23.649Z,6.90
2022-12-23T21:33:51.421Z,7.40
2022-12-23T21:36:20.900Z,6.35
2022-12-23T21:38:49.225Z,5.03
2022-12-23T21:41:18.687Z,5.07
2022-12-23T21:43:45.474Z,4.93
2022-12-23T21:46:15.004Z,5.55
2022-12-23T21:48:41.768Z,5.22
2022-12-23T21:51:20.291Z,4.65
2022-12-23T21:53:49.592Z,5.28
2022-12-23T21:56:19.246Z,4.90
2022-12-23T21:58:46.124Z,5.13
2022-12-23T22:01:15.868Z,5.78
2022-12-23T22:03:43.715Z,4.85
2022-12-23T22:06:15.461Z,4.78
2022-12-23T22:08:42.514Z,4.43
2022-12-23T22:13:37.765Z,4.15
2022-12-23T22:16:08.484Z,5.70
2022-12-23T22:18:36.492Z,5.15
2022-12-23T22:21:07.940Z,4.95
2022-12-23T22:23:34.960Z,5.00
2022-12-23T22:28:30.463Z,4.15
2022-12-23T22:31:05.866Z,5.35
2022-12-23T22:33:33.232Z,5.22
2022-12-23T22:36:00.506Z,4.97
2022-12-23T22:38:27.146Z,5.55
2022-12-23T22:40:54.029Z,5.68
2022-12-23T22:43:20.580Z,5.57
2022-12-23T22:45:47.375Z,8.82
2022-12-23T22:50:40.543Z,12.00
2022-12-23T22:53:07.161Z,9.40
2022-12-23T22:55:33.710Z,13.32
2022-12-23T22:58:00.212Z,14.05
2022-12-23T23:00:26.711Z,13.15
2022-12-23T23:02:53.161Z,6.18
2022-12-23T23:05:19.851Z,4.32
2022-12-23T23:07:46.987Z,3.10
2022-12-23T23:10:14.883Z,2.50
2022-12-23T23:12:41.498Z,2.28
2022-12-23T23:15:08.585Z,1.65
2022-12-23T23:17:35.144Z,2.25
2022-12-23T23:20:01.846Z,1.00
2022-12-23T23:22:28.444Z,0.95
2022-12-23T23:24:54.919Z,0.90
2022-12-23T23:27:21.525Z,0.80
2022-12-23T23:29:48.036Z,0.85
2022-12-23T23:32:14.663Z,0.93
2022-12-23T23:34:42.085Z,0.68
2022-12-23T23:37:08.610Z,0.70
2022-12-23T23:39:35.227Z,0.60
2022-12-23T23:42:01.760Z,0.70
2022-12-23T23:44:28.395Z,0.45
2022-12-23T23:46:54.924Z,0.50
2022-12-23T23:49:22.905Z,0.70
2022-12-23T23:51:50.246Z,0.65
2022-12-23T23:54:17.017Z,1.20
2022-12-23T23:56:43.574Z,1.00
2022-12-23T23:59:10.122Z,0.95
